sensor_id;sensor_type;location;lat;lon;timestamp;temperature;humidity
4637;DHT22;2331;48.806;9.140;2023-05-16T00:01:55;15.50;1.00
4637;DHT22;2331;48.806;9.140;2023-05-16T00:04:22;15.40;1.00
4637;DHT22;2331;48.806;9.140;2023-05-16T00:06:49;15.40;1.00
4637;DHT22;2331;48.806;9.140;2023-05-16T00:09:17;15.40;1.00
4637;DHT22;2331;48.806;9.140;2023-05-16T00:11:44;15.40;1.00
4637;DHT22;2331;48.806;9.140;2023-05-16T00:14:12;15.20;1.00
4637;DHT22;2331;48.806;9.140;2023-05-16T00:16:40;15.20;1.00
4637;DHT22;2331;48.806;9.140;2023-05-16T00:19:07;15.20;1.00
4637;DHT22;2331;48.806;9.140;2023-05-16T00:21:34;15.10;1.00
4637;DHT22;2331;48.806;9.140;2023-05-16T00:24:01;15.10;1.00
4637;DHT22;2331;48.806;9.140;2023-05-16T00:26:29;15.00;1.00
4637;DHT22;2331;48.806;9.140;2023-05-16T00:28:56;15.00;1.00
4637;DHT22;2331;48.806;9.140;2023-05-16T00:31:23;15.10;1.00
4637;DHT22;2331;48.806;9.140;2023-05-16T00:33:50;15.10;1.00
4637;DHT22;2331;48.806;9.140;2023-05-16T00:36:16;15.00;1.00
4637;DHT22;2331;48.806;9.140;2023-05-16T00:38:43;15.00;1.00
4637;DHT22;2331;48.806;9.140;2023-05-16T00:41:10;14.90;1.00
4637;DHT22;2331;48.806;9.140;2023-05-16T00:43:38;14.90;1.00
4637;DHT22;2331;48.806;9.140;2023-05-16T00:46:05;14.80;1.00
4637;DHT22;2331;48.806;9.140;2023-05-16T00:48:32;14.80;1.00
4637;DHT22;2331;48.806;9.140;2023-05-16T00:51:00;14.80;1.00
4637;DHT22;2331;48.806;9.140;2023-05-16T00:53:27;14.80;1.00
4637;DHT22;2331;48.806;9.140;2023-05-16T00:55:55;14.80;1.00
4637;DHT22;2331;48.806;9.140;2023-05-16T00:58:22;14.90;1.00
4637;DHT22;2331;48.806;9.140;2023-05-16T01:00:51;14.90;1.00
4637;DHT22;2331;48.806;9.140;2023-05-16T01:03:18;14.90;1.00
4637;DHT22;2331;48.806;9.140;2023-05-16T01:05:45;14.90;1.00
4637;DHT22;2331;48.806;9.140;2023-05-16T01:08:12;14.90;1.00
4637;DHT22;2331;48.806;9.140;2023-05-16T01:10:49;14.80;1.00
4637;DHT22;2331;48.806;9.140;2023-05-16T01:13:23;14.70;1.00
4637;DHT22;2331;48.806;9.140;2023-05-16T01:15:59;14.70;1.00
4637;DHT22;2331;48.806;9.140;2023-05-16T01:18:35;14.60;1.00
4637;DHT22;2331;48.806;9.140;2023-05-16T01:21:06;14.60;1.00
4637;DHT22;2331;48.806;9.140;2023-05-16T01:23:43;14.50;1.00
4637;DHT22;2331;48.806;9.140;2023-05-16T01:26:18;14.60;1.00
4637;DHT22;2331;48.806;9.140;2023-05-16T01:28:47;14.50;1.00
4637;DHT22;2331;48.806;9.140;2023-05-16T01:31:14;14.40;1.00
4637;DHT22;2331;48.806;9.140;2023-05-16T01:33:42;14.40;1.00
4637;DHT22;2331;48.806;9.140;2023-05-16T01:36:13;14.30;1.00
4637;DHT22;2331;48.806;9.140;2023-05-16T01:38:44;14.30;1.00
4637;DHT22;2331;48.806;9.140;2023-05-16T01:41:20;14.30;1.00
4637;DHT22;2331;48.806;9.140;2023-05-16T01:43:52;14.20;1.00
4637;DHT22;2331;48.806;9.140;2023-05-16T01:46:23;14.20;1.00
4637;DHT22;2331;48.806;9.140;2023-05-16T01:48:53;14.20;1.00
4637;DHT22;2331;48.806;9.140;2023-05-16T01:51:28;14.20;1.00
4637;DHT22;2331;48.806;9.140;2023-05-16T01:53:59;14.20;1.00
4637;DHT22;2331;48.806;9.140;2023-05-16T01:56:30;14.20;1.00
4637;DHT22;2331;48.806;9.140;2023-05-16T01:58:58;14.00;1.00
4637;DHT22;2331;48.806;9.140;2023-05-16T02:01:26;14.00;1.00
4637;DHT22;2331;48.806;9.140;2023-05-16T02:03:53;14.00;1.00
4637;DHT22;2331;48.806;9.140;2023-05-16T02:06:20;13.90;1.00
4637;DHT22;2331;48.806;9.140;2023-05-16T02:08:47;13.90;1.00
4637;DHT22;2331;48.806;9.140;2023-05-16T02:11:14;13.90;1.00
4637;DHT22;2331;48.806;9.140;2023-05-16T02:13:42;13.90;1.00
4637;DHT22;2331;48.806;9.140;2023-05-16T02:16:09;13.90;1.00
4637;DHT22;2331;48.806;9.140;2023-05-16T02:18:37;13.90;1.00
4637;DHT22;2331;48.806;9.140;2023-05-16T02:21:04;13.80;1.00
4637;DHT22;2331;48.806;9.140;2023-05-16T02:23:31;13.80;1.00
4637;DHT22;2331;48.806;9.140;2023-05-16T02:25:58;13.80;1.00
4637;DHT22;2331;48.806;9.140;2023-05-16T02:28:25;13.80;1.00
4637;DHT22;2331;48.806;9.140;2023-05-16T02:30:56;13.70;1.00
4637;DHT22;2331;48.806;9.140;2023-05-16T02:33:24;13.60;1.00
4637;DHT22;2331;48.806;9.140;2023-05-16T02:35:51;13.60;1.00
4637;DHT22;2331;48.806;9.140;2023-05-16T02:38:18;13.60;1.00
4637;DHT22;2331;48.806;9.140;2023-05-16T02:40:45;13.60;1.00
4637;DHT22;2331;48.806;9.140;2023-05-16T02:43:12;13.60;1.00
4637;DHT22;2331;48.806;9.140;2023-05-16T02:45:39;13.50;1.00
4637;DHT22;2331;48.806;9.140;2023-05-16T02:48:07;13.40;1.00
4637;DHT22;2331;48.806;9.140;2023-05-16T02:50:34;13.50;1.00
4637;DHT22;2331;48.806;9.140;2023-05-16T02:53:01;13.50;1.00
4637;DHT22;2331;48.806;9.140;2023-05-16T02:55:29;13.40;1.00
4637;DHT22;2331;48.806;9.140;2023-05-16T02:57:55;13.50;1.00
4637;DHT22;2331;48.806;9.140;2023-05-16T03:00:22;13.50;1.00
4637;DHT22;2331;48.806;9.140;2023-05-16T03:02:49;13.50;1.00
4637;DHT22;2331;48.806;9.140;2023-05-16T03:05:17;13.60;1.00
4637;DHT22;2331;48.806;9.140;2023-05-16T03:07:44;13.60;1.00
4637;DHT22;2331;48.806;9.140;2023-05-16T03:10:11;13.50;1.00
4637;DHT22;2331;48.806;9.140;2023-05-16T03:12:38;13.40;1.00
4637;DHT22;2331;48.806;9.140;2023-05-16T03:15:06;13.50;1.00
4637;DHT22;2331;48.806;9.140;2023-05-16T03:17:33;13.50;1.00
4637;DHT22;2331;48.806;9.140;2023-05-16T03:20:00;13.40;1.00
4637;DHT22;2331;48.806;9.140;2023-05-16T03:22:29;13.40;1.00
4637;DHT22;2331;48.806;9.140;2023-05-16T03:24:56;13.40;1.00
4637;DHT22;2331;48.806;9.140;2023-05-16T03:27:22;13.40;1.00
4637;DHT22;2331;48.806;9.140;2023-05-16T03:29:49;13.40;1.00
4637;DHT22;2331;48.806;9.140;2023-05-16T03:32:16;13.40;1.00
4637;DHT22;2331;48.806;9.140;2023-05-16T03:34:43;13.40;1.00
4637;DHT22;2331;48.806;9.140;2023-05-16T03:37:11;13.30;1.00
4637;DHT22;2331;48.806;9.140;2023-05-16T03:39:40;13.40;1.00
4637;DHT22;2331;48.806;9.140;2023-05-16T03:42:07;13.40;1.00
4637;DHT22;2331;48.806;9.140;2023-05-16T03:44:34;13.40;1.00
4637;DHT22;2331;48.806;9.140;2023-05-16T03:47:01;13.40;1.00
4637;DHT22;2331;48.806;9.140;2023-05-16T03:49:27;13.40;1.00
4637;DHT22;2331;48.806;9.140;2023-05-16T03:51:54;13.50;1.00
4637;DHT22;2331;48.806;9.140;2023-05-16T03:54:22;13.40;1.00
4637;DHT22;2331;48.806;9.140;2023-05-16T03:56:50;13.40;1.00
4637;DHT22;2331;48.806;9.140;2023-05-16T03:59:16;13.50;1.00
4637;DHT22;2331;48.806;9.140;2023-05-16T04:01:43;13.50;1.00
4637;DHT22;2331;48.806;9.140;2023-05-16T04:04:10;13.50;1.00
4637;DHT22;2331;48.806;9.140;2023-05-16T04:06:36;13.50;1.00
4637;DHT22;2331;48.806;9.140;2023-05-16T04:09:03;13.50;1.00
4637;DHT22;2331;48.806;9.140;2023-05-16T04:11:31;13.50;1.00
4637;DHT22;2331;48.806;9.140;2023-05-16T04:13:59;13.50;1.00
4637;DHT22;2331;48.806;9.140;2023-05-16T04:16:26;13.50;1.00
4637;DHT22;2331;48.806;9.140;2023-05-16T04:18:53;13.50;1.00
4637;DHT22;2331;48.806;9.140;2023-05-16T04:21:20;13.50;1.00
4637;DHT22;2331;48.806;9.140;2023-05-16T04:23:47;13.50;1.00
4637;DHT22;2331;48.806;9.140;2023-05-16T04:26:14;13.50;1.00
4637;DHT22;2331;48.806;9.140;2023-05-16T04:28:41;13.50;1.00
4637;DHT22;2331;48.806;9.140;2023-05-16T04:31:09;13.50;1.00
4637;DHT22;2331;48.806;9.140;2023-05-16T04:33:35;13.40;1.00
4637;DHT22;2331;48.806;9.140;2023-05-16T04:36:03;13.50;1.00
4637;DHT22;2331;48.806;9.140;2023-05-16T04:38:30;13.50;1.00
4637;DHT22;2331;48.806;9.140;2023-05-16T04:40:57;13.60;1.00
4637;DHT22;2331;48.806;9.140;2023-05-16T04:43:24;13.50;1.00
4637;DHT22;2331;48.806;9.140;2023-05-16T04:45:50;13.50;1.00
4637;DHT22;2331;48.806;9.140;2023-05-16T04:48:19;13.60;1.00
4637;DHT22;2331;48.806;9.140;2023-05-16T04:50:46;13.70;1.00
4637;DHT22;2331;48.806;9.140;2023-05-16T04:53:13;13.60;1.00
4637;DHT22;2331;48.806;9.140;2023-05-16T04:55:39;13.70;1.00
4637;DHT22;2331;48.806;9.140;2023-05-16T04:58:06;13.70;1.00
4637;DHT22;2331;48.806;9.140;2023-05-16T05:00:33;13.60;1.00
4637;DHT22;2331;48.806;9.140;2023-05-16T05:03:00;13.70;1.00
4637;DHT22;2331;48.806;9.140;2023-05-16T05:05:28;13.70;1.00
4637;DHT22;2331;48.806;9.140;2023-05-16T05:07:57;13.80;1.00
4637;DHT22;2331;48.806;9.140;2023-05-16T05:10:23;13.70;1.00
4637;DHT22;2331;48.806;9.140;2023-05-16T05:12:52;13.60;1.00
4637;DHT22;2331;48.806;9.140;2023-05-16T05:15:19;13.60;1.00
4637;DHT22;2331;48.806;9.140;2023-05-16T05:17:45;13.60;1.00
4637;DHT22;2331;48.806;9.140;2023-05-16T05:20:12;13.60;1.00
4637;DHT22;2331;48.806;9.140;2023-05-16T05:22:41;13.60;1.00
4637;DHT22;2331;48.806;9.140;2023-05-16T05:25:08;13.60;1.00
4637;DHT22;2331;48.806;9.140;2023-05-16T05:27:35;13.60;1.00
4637;DHT22;2331;48.806;9.140;2023-05-16T05:30:02;13.60;1.00
4637;DHT22;2331;48.806;9.140;2023-05-16T05:32:29;13.60;1.00
4637;DHT22;2331;48.806;9.140;2023-05-16T05:34:56;13.60;1.00
4637;DHT22;2331;48.806;9.140;2023-05-16T05:37:23;13.60;1.00
4637;DHT22;2331;48.806;9.140;2023-05-16T05:39:51;13.60;1.00
4637;DHT22;2331;48.806;9.140;2023-05-16T05:42:18;13.70;1.00
4637;DHT22;2331;48.806;9.140;2023-05-16T05:44:44;13.70;1.00
4637;DHT22;2331;48.806;9.140;2023-05-16T05:47:11;13.70;1.00
4637;DHT22;2331;48.806;9.140;2023-05-16T05:49:38;13.70;1.00
4637;DHT22;2331;48.806;9.140;2023-05-16T05:52:05;13.70;1.00
4637;DHT22;2331;48.806;9.140;2023-05-16T05:54:33;13.80;1.00
4637;DHT22;2331;48.806;9.140;2023-05-16T05:57:01;13.90;1.00
4637;DHT22;2331;48.806;9.140;2023-05-16T05:59:28;13.90;1.00
4637;DHT22;2331;48.806;9.140;2023-05-16T06:01:54;13.90;1.00
4637;DHT22;2331;48.806;9.140;2023-05-16T06:04:22;13.90;1.00
4637;DHT22;2331;48.806;9.140;2023-05-16T06:06:49;13.90;1.00
4637;DHT22;2331;48.806;9.140;2023-05-16T06:09:15;14.00;1.00
4637;DHT22;2331;48.806;9.140;2023-05-16T06:11:42;14.00;1.00
4637;DHT22;2331;48.806;9.140;2023-05-16T06:14:12;14.10;1.00
4637;DHT22;2331;48.806;9.140;2023-05-16T06:16:40;14.10;1.00
4637;DHT22;2331;48.806;9.140;2023-05-16T06:19:07;14.20;1.00
4637;DHT22;2331;48.806;9.140;2023-05-16T06:21:34;14.20;1.00
4637;DHT22;2331;48.806;9.140;2023-05-16T06:24:01;14.30;1.00
4637;DHT22;2331;48.806;9.140;2023-05-16T06:26:27;14.40;1.00
4637;DHT22;2331;48.806;9.140;2023-05-16T06:28:54;14.40;1.00
4637;DHT22;2331;48.806;9.140;2023-05-16T06:31:22;14.40;1.00
4637;DHT22;2331;48.806;9.140;2023-05-16T06:33:49;14.40;1.00
4637;DHT22;2331;48.806;9.140;2023-05-16T06:36:16;14.30;1.00
4637;DHT22;2331;48.806;9.140;2023-05-16T06:38:42;14.30;1.00
4637;DHT22;2331;48.806;9.140;2023-05-16T06:41:09;14.40;1.00
4637;DHT22;2331;48.806;9.140;2023-05-16T06:43:36;14.60;1.00
4637;DHT22;2331;48.806;9.140;2023-05-16T06:46:03;14.50;1.00
4637;DHT22;2331;48.806;9.140;2023-05-16T06:48:32;14.60;1.00
4637;DHT22;2331;48.806;9.140;2023-05-16T06:50:58;14.40;1.00
4637;DHT22;2331;48.806;9.140;2023-05-16T06:53:25;14.40;1.00
4637;DHT22;2331;48.806;9.140;2023-05-16T06:55:53;14.40;1.00
4637;DHT22;2331;48.806;9.140;2023-05-16T06:58:20;14.50;1.00
4637;DHT22;2331;48.806;9.140;2023-05-16T07:00:48;14.50;1.00
4637;DHT22;2331;48.806;9.140;2023-05-16T07:03:15;14.60;1.00
4637;DHT22;2331;48.806;9.140;2023-05-16T07:05:43;14.50;1.00
4637;DHT22;2331;48.806;9.140;2023-05-16T07:08:09;14.50;1.00
4637;DHT22;2331;48.806;9.140;2023-05-16T07:10:36;14.50;1.00
4637;DHT22;2331;48.806;9.140;2023-05-16T07:13:03;14.50;1.00
4637;DHT22;2331;48.806;9.140;2023-05-16T07:15:30;14.60;1.00
4637;DHT22;2331;48.806;9.140;2023-05-16T07:17:58;14.50;1.00
4637;DHT22;2331;48.806;9.140;2023-05-16T07:20:25;14.50;1.00
4637;DHT22;2331;48.806;9.140;2023-05-16T07:22:53;14.50;1.00
4637;DHT22;2331;48.806;9.140;2023-05-16T07:25:21;14.40;1.00
4637;DHT22;2331;48.806;9.140;2023-05-16T07:27:48;14.50;1.00
4637;DHT22;2331;48.806;9.140;2023-05-16T07:30:15;14.50;1.00
4637;DHT22;2331;48.806;9.140;2023-05-16T07:32:42;14.50;1.00
4637;DHT22;2331;48.806;9.140;2023-05-16T07:35:09;14.50;1.00
4637;DHT22;2331;48.806;9.140;2023-05-16T07:37:37;14.50;1.00
4637;DHT22;2331;48.806;9.140;2023-05-16T07:40:08;14.50;1.00
4637;DHT22;2331;48.806;9.140;2023-05-16T07:42:35;14.50;1.00
4637;DHT22;2331;48.806;9.140;2023-05-16T07:45:03;14.40;1.00
4637;DHT22;2331;48.806;9.140;2023-05-16T07:47:30;14.50;1.00
4637;DHT22;2331;48.806;9.140;2023-05-16T07:49:56;14.40;1.00
4637;DHT22;2331;48.806;9.140;2023-05-16T07:52:23;14.50;1.00
4637;DHT22;2331;48.806;9.140;2023-05-16T07:54:50;14.50;1.00
4637;DHT22;2331;48.806;9.140;2023-05-16T07:57:18;14.60;1.00
4637;DHT22;2331;48.806;9.140;2023-05-16T07:59:45;14.70;1.00
4637;DHT22;2331;48.806;9.140;2023-05-16T08:02:12;14.60;1.00
4637;DHT22;2331;48.806;9.140;2023-05-16T08:04:38;14.60;1.00
4637;DHT22;2331;48.806;9.140;2023-05-16T08:07:05;14.60;1.00
4637;DHT22;2331;48.806;9.140;2023-05-16T08:09:32;14.60;1.00
4637;DHT22;2331;48.806;9.140;2023-05-16T08:11:59;14.60;1.00
4637;DHT22;2331;48.806;9.140;2023-05-16T08:14:29;14.60;1.00
4637;DHT22;2331;48.806;9.140;2023-05-16T08:16:57;14.60;1.00
4637;DHT22;2331;48.806;9.140;2023-05-16T08:19:24;14.60;1.00
4637;DHT22;2331;48.806;9.140;2023-05-16T08:21:51;14.60;1.00
4637;DHT22;2331;48.806;9.140;2023-05-16T08:24:18;14.40;1.00
4637;DHT22;2331;48.806;9.140;2023-05-16T08:26:45;14.50;1.00
4637;DHT22;2331;48.806;9.140;2023-05-16T08:29:12;14.40;1.00
4637;DHT22;2331;48.806;9.140;2023-05-16T08:31:40;14.40;1.00
4637;DHT22;2331;48.806;9.140;2023-05-16T08:34:07;14.20;1.00
4637;DHT22;2331;48.806;9.140;2023-05-16T08:36:34;14.20;1.00
4637;DHT22;2331;48.806;9.140;2023-05-16T08:39:02;14.10;1.00
4637;DHT22;2331;48.806;9.140;2023-05-16T08:41:29;14.10;1.00
4637;DHT22;2331;48.806;9.140;2023-05-16T08:43:56;14.00;1.00
4637;DHT22;2331;48.806;9.140;2023-05-16T08:46:23;14.10;1.00
4637;DHT22;2331;48.806;9.140;2023-05-16T08:48:53;14.20;1.00
4637;DHT22;2331;48.806;9.140;2023-05-16T08:51:20;14.20;1.00
4637;DHT22;2331;48.806;9.140;2023-05-16T08:53:53;14.30;1.00
4637;DHT22;2331;48.806;9.140;2023-05-16T08:56:23;14.30;1.00
4637;DHT22;2331;48.806;9.140;2023-05-16T08:58:51;14.30;1.00
4637;DHT22;2331;48.806;9.140;2023-05-16T09:01:20;14.30;1.00
4637;DHT22;2331;48.806;9.140;2023-05-16T09:03:48;14.40;1.00
4637;DHT22;2331;48.806;9.140;2023-05-16T09:06:16;14.40;1.00
4637;DHT22;2331;48.806;9.140;2023-05-16T09:08:44;14.30;1.00
4637;DHT22;2331;48.806;9.140;2023-05-16T09:11:11;14.20;1.00
4637;DHT22;2331;48.806;9.140;2023-05-16T09:13:38;14.20;1.00
4637;DHT22;2331;48.806;9.140;2023-05-16T09:16:08;14.40;1.00
4637;DHT22;2331;48.806;9.140;2023-05-16T09:18:36;14.50;1.00
4637;DHT22;2331;48.806;9.140;2023-05-16T09:21:04;14.50;1.00
4637;DHT22;2331;48.806;9.140;2023-05-16T09:23:33;14.60;1.00
4637;DHT22;2331;48.806;9.140;2023-05-16T09:26:00;14.50;1.00
4637;DHT22;2331;48.806;9.140;2023-05-16T09:28:27;14.50;1.00
4637;DHT22;2331;48.806;9.140;2023-05-16T09:30:54;14.50;1.00
4637;DHT22;2331;48.806;9.140;2023-05-16T09:33:26;14.50;1.00
4637;DHT22;2331;48.806;9.140;2023-05-16T09:35:56;14.40;1.00
4637;DHT22;2331;48.806;9.140;2023-05-16T09:38:24;14.50;1.00
4637;DHT22;2331;48.806;9.140;2023-05-16T09:40:53;14.60;1.00
4637;DHT22;2331;48.806;9.140;2023-05-16T09:43:24;14.60;1.00
4637;DHT22;2331;48.806;9.140;2023-05-16T09:45:51;14.60;1.00
4637;DHT22;2331;48.806;9.140;2023-05-16T09:48:20;14.60;1.00
4637;DHT22;2331;48.806;9.140;2023-05-16T09:50:49;14.50;1.00
4637;DHT22;2331;48.806;9.140;2023-05-16T09:53:17;14.70;1.00
4637;DHT22;2331;48.806;9.140;2023-05-16T09:56:00;14.80;1.00
4637;DHT22;2331;48.806;9.140;2023-05-16T09:58:28;14.80;1.00
4637;DHT22;2331;48.806;9.140;2023-05-16T10:00:56;14.70;1.00
4637;DHT22;2331;48.806;9.140;2023-05-16T10:03:24;14.80;1.00
4637;DHT22;2331;48.806;9.140;2023-05-16T10:05:52;14.90;1.00
4637;DHT22;2331;48.806;9.140;2023-05-16T10:08:20;14.90;1.00
4637;DHT22;2331;48.806;9.140;2023-05-16T10:10:50;15.00;1.00
4637;DHT22;2331;48.806;9.140;2023-05-16T10:13:20;14.90;1.00
4637;DHT22;2331;48.806;9.140;2023-05-16T10:15:48;15.10;1.00
4637;DHT22;2331;48.806;9.140;2023-05-16T10:18:17;15.10;1.00
4637;DHT22;2331;48.806;9.140;2023-05-16T10:20:46;15.20;1.00
4637;DHT22;2331;48.806;9.140;2023-05-16T10:23:16;15.30;1.00
4637;DHT22;2331;48.806;9.140;2023-05-16T10:25:44;15.40;1.00
4637;DHT22;2331;48.806;9.140;2023-05-16T10:28:11;15.50;1.00
4637;DHT22;2331;48.806;9.140;2023-05-16T10:30:42;15.50;1.00
4637;DHT22;2331;48.806;9.140;2023-05-16T10:33:11;15.60;1.00
4637;DHT22;2331;48.806;9.140;2023-05-16T10:35:39;15.60;1.00
4637;DHT22;2331;48.806;9.140;2023-05-16T10:38:07;15.60;1.00
4637;DHT22;2331;48.806;9.140;2023-05-16T10:40:36;15.70;1.00
4637;DHT22;2331;48.806;9.140;2023-05-16T10:43:04;15.60;1.00
4637;DHT22;2331;48.806;9.140;2023-05-16T10:45:32;15.50;1.00
4637;DHT22;2331;48.806;9.140;2023-05-16T10:48:02;15.30;1.00
4637;DHT22;2331;48.806;9.140;2023-05-16T10:50:32;15.20;1.00
4637;DHT22;2331;48.806;9.140;2023-05-16T10:53:14;15.20;1.00
4637;DHT22;2331;48.806;9.140;2023-05-16T10:55:48;15.20;1.00
4637;DHT22;2331;48.806;9.140;2023-05-16T10:58:22;15.20;1.00
4637;DHT22;2331;48.806;9.140;2023-05-16T11:00:48;15.00;1.00
4637;DHT22;2331;48.806;9.140;2023-05-16T11:03:21;14.90;1.00
4637;DHT22;2331;48.806;9.140;2023-05-16T11:05:52;14.90;1.00
4637;DHT22;2331;48.806;9.140;2023-05-16T11:08:19;15.00;1.00
4637;DHT22;2331;48.806;9.140;2023-05-16T11:10:46;14.90;1.00
4637;DHT22;2331;48.806;9.140;2023-05-16T11:13:13;14.90;1.00
4637;DHT22;2331;48.806;9.140;2023-05-16T11:15:44;14.90;1.00
4637;DHT22;2331;48.806;9.140;2023-05-16T11:18:14;14.90;1.00
4637;DHT22;2331;48.806;9.140;2023-05-16T11:20:44;14.70;1.00
4637;DHT22;2331;48.806;9.140;2023-05-16T11:23:18;14.70;1.00
4637;DHT22;2331;48.806;9.140;2023-05-16T11:25:47;14.60;1.00
4637;DHT22;2331;48.806;9.140;2023-05-16T11:28:16;14.60;1.00
4637;DHT22;2331;48.806;9.140;2023-05-16T11:30:45;14.70;1.00
4637;DHT22;2331;48.806;9.140;2023-05-16T11:33:12;14.60;1.00
4637;DHT22;2331;48.806;9.140;2023-05-16T11:35:39;14.50;1.00
4637;DHT22;2331;48.806;9.140;2023-05-16T11:38:11;14.40;1.00
4637;DHT22;2331;48.806;9.140;2023-05-16T11:40:41;14.40;1.00
4637;DHT22;2331;48.806;9.140;2023-05-16T11:43:08;14.30;1.00
4637;DHT22;2331;48.806;9.140;2023-05-16T11:45:36;14.40;1.00
4637;DHT22;2331;48.806;9.140;2023-05-16T11:48:03;14.30;1.00
4637;DHT22;2331;48.806;9.140;2023-05-16T11:50:33;14.50;1.00
4637;DHT22;2331;48.806;9.140;2023-05-16T11:53:00;14.50;1.00
4637;DHT22;2331;48.806;9.140;2023-05-16T11:55:29;14.40;1.00
4637;DHT22;2331;48.806;9.140;2023-05-16T11:57:57;14.40;1.00
4637;DHT22;2331;48.806;9.140;2023-05-16T12:00:26;14.40;1.00
4637;DHT22;2331;48.806;9.140;2023-05-16T12:02:53;14.30;1.00
4637;DHT22;2331;48.806;9.140;2023-05-16T12:05:21;14.40;1.00
4637;DHT22;2331;48.806;9.140;2023-05-16T12:07:52;14.50;1.00
4637;DHT22;2331;48.806;9.140;2023-05-16T12:10:20;14.40;1.00
4637;DHT22;2331;48.806;9.140;2023-05-16T12:12:50;14.40;1.00
4637;DHT22;2331;48.806;9.140;2023-05-16T12:15:17;14.40;1.00
4637;DHT22;2331;48.806;9.140;2023-05-16T12:17:45;14.50;1.00
4637;DHT22;2331;48.806;9.140;2023-05-16T12:20:12;14.50;1.00
4637;DHT22;2331;48.806;9.140;2023-05-16T12:22:41;14.50;1.00
4637;DHT22;2331;48.806;9.140;2023-05-16T12:25:21;14.50;1.00
4637;DHT22;2331;48.806;9.140;2023-05-16T12:27:49;14.50;1.00
4637;DHT22;2331;48.806;9.140;2023-05-16T12:30:16;14.60;1.00
4637;DHT22;2331;48.806;9.140;2023-05-16T12:32:43;14.70;1.00
4637;DHT22;2331;48.806;9.140;2023-05-16T12:35:10;14.70;1.00
4637;DHT22;2331;48.806;9.140;2023-05-16T12:37:37;14.60;1.00
4637;DHT22;2331;48.806;9.140;2023-05-16T12:40:06;14.70;1.00
4637;DHT22;2331;48.806;9.140;2023-05-16T12:42:35;14.80;1.00
4637;DHT22;2331;48.806;9.140;2023-05-16T12:45:04;14.80;1.00
4637;DHT22;2331;48.806;9.140;2023-05-16T12:47:35;14.70;1.00
4637;DHT22;2331;48.806;9.140;2023-05-16T12:50:02;14.70;1.00
4637;DHT22;2331;48.806;9.140;2023-05-16T12:52:34;14.60;1.00
4637;DHT22;2331;48.806;9.140;2023-05-16T12:55:01;14.50;1.00
4637;DHT22;2331;48.806;9.140;2023-05-16T12:57:28;14.50;1.00
4637;DHT22;2331;48.806;9.140;2023-05-16T12:59:54;14.40;1.00
4637;DHT22;2331;48.806;9.140;2023-05-16T13:02:23;14.40;1.00
4637;DHT22;2331;48.806;9.140;2023-05-16T13:04:50;14.30;1.00
4637;DHT22;2331;48.806;9.140;2023-05-16T13:07:16;14.20;1.00
4637;DHT22;2331;48.806;9.140;2023-05-16T13:09:43;14.10;1.00
4637;DHT22;2331;48.806;9.140;2023-05-16T13:12:10;14.20;1.00
4637;DHT22;2331;48.806;9.140;2023-05-16T13:14:38;14.20;1.00
4637;DHT22;2331;48.806;9.140;2023-05-16T13:17:06;14.10;1.00
4637;DHT22;2331;48.806;9.140;2023-05-16T13:19:34;14.00;1.00
4637;DHT22;2331;48.806;9.140;2023-05-16T13:22:01;14.10;1.00
4637;DHT22;2331;48.806;9.140;2023-05-16T13:24:46;14.20;1.00
4637;DHT22;2331;48.806;9.140;2023-05-16T13:27:15;14.20;1.00
4637;DHT22;2331;48.806;9.140;2023-05-16T13:29:42;14.30;1.00
4637;DHT22;2331;48.806;9.140;2023-05-16T13:32:09;14.10;1.00
4637;DHT22;2331;48.806;9.140;2023-05-16T13:34:37;14.20;1.00
4637;DHT22;2331;48.806;9.140;2023-05-16T13:37:04;14.10;1.00
4637;DHT22;2331;48.806;9.140;2023-05-16T13:39:30;14.10;1.00
4637;DHT22;2331;48.806;9.140;2023-05-16T13:41:57;14.00;1.00
4637;DHT22;2331;48.806;9.140;2023-05-16T13:44:25;14.10;1.00
4637;DHT22;2331;48.806;9.140;2023-05-16T13:46:51;14.10;1.00
4637;DHT22;2331;48.806;9.140;2023-05-16T13:49:18;14.20;1.00
4637;DHT22;2331;48.806;9.140;2023-05-16T13:51:47;14.20;1.00
4637;DHT22;2331;48.806;9.140;2023-05-16T13:54:14;14.20;1.00
4637;DHT22;2331;48.806;9.140;2023-05-16T13:56:44;14.20;1.00
4637;DHT22;2331;48.806;9.140;2023-05-16T13:59:16;14.10;1.00
4637;DHT22;2331;48.806;9.140;2023-05-16T14:01:43;14.10;1.00
4637;DHT22;2331;48.806;9.140;2023-05-16T14:04:10;14.10;1.00
4637;DHT22;2331;48.806;9.140;2023-05-16T14:06:37;14.20;1.00
4637;DHT22;2331;48.806;9.140;2023-05-16T14:09:06;14.20;1.00
4637;DHT22;2331;48.806;9.140;2023-05-16T14:11:33;14.00;1.00
4637;DHT22;2331;48.806;9.140;2023-05-16T14:14:00;14.10;1.00
4637;DHT22;2331;48.806;9.140;2023-05-16T14:16:27;14.10;1.00
4637;DHT22;2331;48.806;9.140;2023-05-16T14:18:55;14.20;1.00
4637;DHT22;2331;48.806;9.140;2023-05-16T14:21:22;14.20;1.00
4637;DHT22;2331;48.806;9.140;2023-05-16T14:23:49;14.20;1.00
4637;DHT22;2331;48.806;9.140;2023-05-16T14:26:17;14.10;1.00
4637;DHT22;2331;48.806;9.140;2023-05-16T14:28:46;14.30;1.00
4637;DHT22;2331;48.806;9.140;2023-05-16T14:31:13;14.30;1.00
4637;DHT22;2331;48.806;9.140;2023-05-16T14:33:41;14.40;1.00
4637;DHT22;2331;48.806;9.140;2023-05-16T14:36:08;14.40;1.00
4637;DHT22;2331;48.806;9.140;2023-05-16T14:38:35;14.40;1.00
4637;DHT22;2331;48.806;9.140;2023-05-16T14:41:06;14.20;1.00
4637;DHT22;2331;48.806;9.140;2023-05-16T14:43:38;14.30;1.00
4637;DHT22;2331;48.806;9.140;2023-05-16T14:46:10;14.30;1.00
4637;DHT22;2331;48.806;9.140;2023-05-16T14:48:37;14.40;1.00
4637;DHT22;2331;48.806;9.140;2023-05-16T14:51:06;14.50;1.00
4637;DHT22;2331;48.806;9.140;2023-05-16T14:53:33;14.50;1.00
4637;DHT22;2331;48.806;9.140;2023-05-16T14:56:00;14.50;1.00
4637;DHT22;2331;48.806;9.140;2023-05-16T14:58:31;14.50;1.00
4637;DHT22;2331;48.806;9.140;2023-05-16T15:00:59;14.70;1.00
4637;DHT22;2331;48.806;9.140;2023-05-16T15:03:26;14.60;1.00
4637;DHT22;2331;48.806;9.140;2023-05-16T15:05:53;14.70;1.00
4637;DHT22;2331;48.806;9.140;2023-05-16T15:08:20;14.80;1.00
4637;DHT22;2331;48.806;9.140;2023-05-16T15:10:47;14.60;1.00
4637;DHT22;2331;48.806;9.140;2023-05-16T15:13:14;14.70;1.00
4637;DHT22;2331;48.806;9.140;2023-05-16T15:15:40;14.60;1.00
4637;DHT22;2331;48.806;9.140;2023-05-16T15:18:09;14.80;1.00
4637;DHT22;2331;48.806;9.140;2023-05-16T15:20:36;14.70;1.00
4637;DHT22;2331;48.806;9.140;2023-05-16T15:23:02;14.70;1.00
4637;DHT22;2331;48.806;9.140;2023-05-16T15:25:30;14.80;1.00
4637;DHT22;2331;48.806;9.140;2023-05-16T15:27:57;14.70;1.00
4637;DHT22;2331;48.806;9.140;2023-05-16T15:30:24;14.50;1.00
4637;DHT22;2331;48.806;9.140;2023-05-16T15:32:51;14.50;1.00
4637;DHT22;2331;48.806;9.140;2023-05-16T15:35:19;14.50;1.00
4637;DHT22;2331;48.806;9.140;2023-05-16T15:37:45;14.70;1.00
4637;DHT22;2331;48.806;9.140;2023-05-16T15:40:13;14.80;1.00
4637;DHT22;2331;48.806;9.140;2023-05-16T15:42:42;14.90;1.00
4637;DHT22;2331;48.806;9.140;2023-05-16T15:45:10;14.90;1.00
4637;DHT22;2331;48.806;9.140;2023-05-16T15:47:37;14.90;1.00
4637;DHT22;2331;48.806;9.140;2023-05-16T15:50:04;14.90;1.00
4637;DHT22;2331;48.806;9.140;2023-05-16T15:52:33;14.80;1.00
4637;DHT22;2331;48.806;9.140;2023-05-16T15:55:08;14.70;1.00
4637;DHT22;2331;48.806;9.140;2023-05-16T15:57:39;14.70;1.00
4637;DHT22;2331;48.806;9.140;2023-05-16T16:00:10;14.60;1.00
4637;DHT22;2331;48.806;9.140;2023-05-16T16:02:39;14.70;1.00
4637;DHT22;2331;48.806;9.140;2023-05-16T16:05:24;14.70;1.00
4637;DHT22;2331;48.806;9.140;2023-05-16T16:07:52;14.50;1.00
4637;DHT22;2331;48.806;9.140;2023-05-16T16:10:19;14.60;1.00
4637;DHT22;2331;48.806;9.140;2023-05-16T16:12:57;14.50;1.00
4637;DHT22;2331;48.806;9.140;2023-05-16T16:15:25;14.50;1.00
4637;DHT22;2331;48.806;9.140;2023-05-16T16:17:52;14.40;1.00
4637;DHT22;2331;48.806;9.140;2023-05-16T16:20:19;14.50;1.00
4637;DHT22;2331;48.806;9.140;2023-05-16T16:22:46;14.50;1.00